Historique des mesures à Cassis (13260), France
Quotidien Résumé Fevrier 10, 2018 Unités:  Métrique/US    US   Métrique
« Précédent (Jour)
Suivant (Jour) »
Quotidien Hebdomadaire Mensuel Annuel Période au choix
  Maximum: Minimum: Moyenne:
Température: TemperatureC °F /  -17.8 °C 4.9 °F /  -15.1 °C 6.7 °F /  -14.1 °C
Point de rosée: DewpointC °F /  -17.8 °C -2.3 °F /  -19.1 °C -0.7 °F /  -18.2 °C
Humidité: Humidity % 45 % 56 %
Vitesse du vent: WindSpeedKMH mph /  0 km/h - 10.5 mph /  16.9 km/h
Rafales: WindSpeedGustKMH mph /  0 km/h - -
Vent:- - SW
Pression: PressurehPa in /  0 hPa 1007.3 in /  34107.2 hPa -
Précipitations: 0.0 in /  0 mm    
Historical Graphs
 
 
Mesures pour : Fevrier 10, 2018
Heure Temperature Point de rosée Pression Vent Vitesse du vent Rafales Humidité Pluie (par heure) Conditions
TemperatureC °F /  -17.8 °C DewpointC °F /  -17.8 °C PressurehPa in /  0 hPa Calm     Humidity % HourlyPrecipMM in /  0 mm SoftwareType W/m2
00:12 6.1 °F /  -14.4 °C -0.4 °F /  -18 °C 1009.4 in /  34178.3 hPa West 2.6 mph /  4.2 km/h 6.4 mph /  10.3 km/h 63 % 0.0 in /  0 mm open2300-1.11 W/m2
01:12 5.8 °F /  -14.6 °C -0.5 °F /  -18.1 °C 1008.7 in /  34154.6 hPa WNW 8.2 mph /  13.2 km/h 12.6 mph /  20.3 km/h 64 % 0.0 in /  0 mm open2300-1.11 W/m2
02:12 5.4 °F /  -14.8 °C -0.4 °F /  -18 °C 1008.0 in /  34130.9 hPa WNW 16.9 mph /  27.2 km/h 16.9 mph /  27.2 km/h 66 % 0.0 in /  0 mm open2300-1.11 W/m2
03:12 5.3 °F /  -14.8 °C -0.3 °F /  -17.9 °C 1007.7 in /  34120.7 hPa West 4.7 mph /  7.6 km/h 16.9 mph /  27.2 km/h 67 % 0.0 in /  0 mm open2300-1.11 W/m2
04:12 5.4 °F /  -14.8 °C 0.0 °F /  -17.8 °C 1007.3 in /  34107.2 hPa NNW 20.6 mph /  33.2 km/h 20.6 mph /  33.2 km/h 68 % 0.0 in /  0 mm open2300-1.11 W/m2
05:12 5.3 °F /  -14.8 °C 0.1 °F /  -17.7 °C 1007.3 in /  34107.2 hPa NNW 7.2 mph /  11.6 km/h 9.0 mph /  14.5 km/h 69 % 0.0 in /  0 mm open2300-1.11 W/m2
06:12 5.2 °F /  -14.9 °C 0.0 °F /  -17.8 °C 1007.3 in /  34107.2 hPa Calm   2.9 mph /  4.7 km/h 69 % 0.0 in /  0 mm open2300-1.11 W/m2
07:12 4.9 °F /  -15.1 °C -0.3 °F /  -17.9 °C 1007.7 in /  34120.7 hPa NNE 4.3 mph /  6.9 km/h 4.3 mph /  6.9 km/h 69 % 0.0 in /  0 mm open2300-1.11 W/m2
08:12 5.1 °F /  -14.9 °C -0.6 °F /  -18.1 °C 1007.3 in /  34107.2 hPa NNW 5.0 mph /  8 km/h 13.4 mph /  21.6 km/h 67 % 0.0 in /  0 mm open2300-1.11 W/m2
09:12 6.1 °F /  -14.4 °C -0.7 °F /  -18.2 °C 1008.0 in /  34130.9 hPa North 7.9 mph /  12.7 km/h 7.9 mph /  12.7 km/h 62 % 0.0 in /  0 mm open2300-1.11 W/m2
10:12 6.9 °F /  -13.9 °C -1.1 °F /  -18.4 °C 1008.7 in /  34154.6 hPa North 4.0 mph /  6.4 km/h 9.7 mph /  15.6 km/h 57 % 0.0 in /  0 mm open2300-1.11 W/m2
11:12 8.4 °F /  -13.1 °C -0.9 °F /  -18.3 °C 1009.4 in /  34178.3 hPa West 14.8 mph /  23.8 km/h 14.8 mph /  23.8 km/h 52 % 0.0 in /  0 mm open2300-1.11 W/m2
12:12 9.9 °F /  -12.3 °C -0.3 °F /  -17.9 °C 1009.0 in /  34164.7 hPa WNW 16.6 mph /  26.7 km/h 16.6 mph /  26.7 km/h 49 % 0.0 in /  0 mm open2300-1.11 W/m2
13:12 10.9 °F /  -11.7 °C 0.3 °F /  -17.6 °C 1009.0 in /  34164.7 hPa Calm   6.1 mph /  9.8 km/h 48 % 0.0 in /  0 mm open2300-1.11 W/m2
14:12 11.6 °F /  -11.3 °C 0.0 °F /  -17.8 °C 1008.4 in /  34144.4 hPa WNW 19.1 mph /  30.7 km/h 19.1 mph /  30.7 km/h 45 % 0.0 in /  0 mm open2300-1.11 W/m2
15:12 11.2 °F /  -11.6 °C 0.3 °F /  -17.6 °C 1008.7 in /  34154.6 hPa WNW 20.9 mph /  33.6 km/h 25.3 mph /  40.7 km/h 47 % 0.0 in /  0 mm open2300-1.11 W/m2
16:12 10.6 °F /  -11.9 °C -0.3 °F /  -17.9 °C 1008.7 in /  34154.6 hPa WNW 14.3 mph /  23 km/h 23.0 mph /  37 km/h 47 % 0.0 in /  0 mm open2300-1.11 W/m2
17:12 9.2 °F /  -12.7 °C -0.7 °F /  -18.2 °C 1008.7 in /  34154.6 hPa NNE 8.2 mph /  13.2 km/h 31.4 mph /  50.5 km/h 50 % 0.0 in /  0 mm open2300-1.11 W/m2
18:12 7.4 °F /  -13.7 °C -1.3 °F /  -18.5 °C 1009.4 in /  34178.3 hPa NNW 9.0 mph /  14.5 km/h 9.0 mph /  14.5 km/h 54 % 0.0 in /  0 mm open2300-1.11 W/m2
19:12 6.1 °F /  -14.4 °C -1.8 °F /  -18.8 °C 1009.7 in /  34188.4 hPa WNW 24.1 mph /  38.8 km/h 24.1 mph /  38.8 km/h 57 % 0.0 in /  0 mm open2300-1.11 W/m2
20:12 5.6 °F /  -14.7 °C -2.3 °F /  -19.1 °C 1009.4 in /  34178.3 hPa WNW 14.3 mph /  23 km/h 17.2 mph /  27.7 km/h 57 % 0.0 in /  0 mm open2300-1.11 W/m2
21:12 5.1 °F /  -14.9 °C -2.0 °F /  -18.9 °C 1009.7 in /  34188.4 hPa WNW 16.9 mph /  27.2 km/h 31.7 mph /  51 km/h 60 % 0.0 in /  0 mm open2300-1.11 W/m2
22:12 4.9 °F /  -15.1 °C -2.0 °F /  -18.9 °C 1010.4 in /  34212.1 hPa West 18.3 mph /  29.5 km/h 19.5 mph /  31.4 km/h 61 % 0.0 in /  0 mm open2300-1.11 W/m2
23:12 5.1 °F /  -14.9 °C -1.8 °F /  -18.8 °C 1010.0 in /  34198.6 hPa ENE 5.5 mph /  8.9 km/h 7.6 mph /  12.2 km/h 61 % 0.0 in /  0 mm open2300-1.11 W/m2
Observations météo à CASSIS
WU-History script by Weather Underground - 1 mb